createdAt,value
2023-02-15T00:03:09.100Z,75.11
2023-02-15T00:08:14.615Z,74.89
2023-02-15T00:13:19.161Z,75.32
2023-02-15T00:18:23.091Z,74.41
2023-02-15T00:23:28.828Z,75.10
2023-02-15T00:28:33.335Z,73.47
2023-02-15T00:33:37.642Z,74.39
2023-02-15T00:38:43.583Z,75.36
2023-02-15T00:43:48.694Z,75.99
2023-02-15T00:48:52.776Z,76.78
2023-02-15T00:53:58.209Z,77.43
2023-02-15T00:59:02.335Z,77.67
2023-02-15T01:04:08.604Z,77.05
2023-02-15T01:09:14.826Z,76.17
2023-02-15T01:14:18.826Z,76.44
2023-02-15T01:19:22.725Z,77.35
2023-02-15T01:24:28.208Z,77.29
2023-02-15T01:29:32.239Z,76.16
2023-02-15T01:34:36.177Z,76.37
2023-02-15T01:39:42.711Z,76.41
2023-02-15T01:44:52.642Z,77.82
2023-02-15T01:50:04.165Z,77.77
2023-02-15T01:55:11.242Z,76.46
2023-02-15T02:00:17.830Z,77.18
2023-02-15T02:05:25.354Z,75.83
2023-02-15T02:10:31.096Z,76.61
2023-02-15T02:15:46.597Z,76.51
2023-02-15T02:21:16.488Z,77.00
2023-02-15T02:26:41.244Z,77.59
2023-02-15T02:32:09.260Z,76.17
2023-02-15T02:37:23.090Z,75.09
2023-02-15T02:42:37.518Z,75.93
2023-02-15T02:47:46.916Z,77.10
2023-02-15T02:52:53.618Z,76.68
2023-02-15T02:58:02.170Z,76.92
2023-02-15T03:03:12.254Z,75.62
2023-02-15T03:08:23.036Z,76.43
2023-02-15T03:13:27.569Z,76.31
2023-02-15T03:18:37.939Z,75.01
2023-02-15T03:23:44.030Z,76.44
2023-02-15T03:28:52.035Z,77.02
2023-02-15T03:34:00.246Z,77.71
2023-02-15T03:39:12.976Z,76.53
2023-02-15T03:44:25.134Z,76.77
2023-02-15T03:49:35.637Z,77.43
2023-02-15T03:54:47.320Z,77.62
2023-02-15T04:00:08.989Z,77.04
2023-02-15T04:05:17.490Z,76.80
2023-02-15T04:10:40.143Z,75.50
2023-02-15T04:16:01.685Z,75.22
2023-02-15T04:21:23.079Z,75.48
2023-02-15T04:26:28.420Z,76.32
2023-02-15T04:31:32.659Z,76.44
2023-02-15T04:36:36.732Z,77.01
2023-02-15T04:41:42.408Z,76.57
2023-02-15T04:46:47.463Z,76.91
2023-02-15T04:51:51.728Z,76.37
2023-02-15T04:56:57.064Z,76.26
2023-02-15T05:02:01.013Z,75.82
2023-02-15T05:07:05.102Z,74.73
2023-02-15T05:12:10.546Z,75.22
2023-02-15T05:17:14.454Z,75.60
2023-02-15T05:22:18.389Z,74.80
2023-02-15T05:27:41.152Z,75.05
2023-02-15T05:32:45.331Z,74.83
2023-02-15T05:37:49.332Z,75.37
2023-02-15T05:42:55.663Z,75.90
2023-02-15T05:48:00.285Z,76.62
2023-02-15T05:53:04.253Z,76.22
2023-02-15T05:58:10.035Z,75.51
2023-02-15T06:03:14.056Z,74.17
2023-02-15T06:08:18.035Z,72.81
2023-02-15T06:13:23.515Z,73.85
2023-02-15T06:18:27.688Z,72.51
2023-02-15T06:23:32.854Z,70.97
2023-02-15T06:28:39.077Z,69.94
2023-02-15T06:33:46.489Z,67.29
2023-02-15T06:38:50.430Z,64.50
2023-02-15T06:43:56.347Z,64.35
2023-02-15T06:49:00.287Z,63.21
2023-02-15T06:54:04.684Z,61.29
2023-02-15T06:59:10.144Z,58.29
2023-02-15T07:04:14.155Z,55.57
2023-02-15T07:09:18.260Z,53.25
2023-02-15T07:14:23.809Z,51.05
2023-02-15T07:19:28.048Z,50.60
2023-02-15T07:24:32.278Z,51.60
2023-02-15T07:29:37.578Z,48.91
2023-02-15T07:34:42.755Z,45.73
2023-02-15T07:39:46.637Z,46.70
2023-02-15T07:44:52.016Z,44.47
2023-02-15T07:49:55.983Z,45.60
2023-02-15T07:54:59.953Z,46.37
2023-02-15T08:00:07.034Z,43.39
2023-02-15T08:05:18.068Z,43.43
2023-02-15T08:10:42.058Z,41.84
2023-02-15T08:15:54.857Z,41.38
2023-02-15T08:20:59.109Z,41.92
2023-02-15T08:26:03.398Z,42.89
2023-02-15T08:31:11.964Z,44.07
2023-02-15T08:36:18.280Z,42.66
2023-02-15T08:41:24.987Z,43.05
2023-02-15T08:46:33.162Z,41.62
2023-02-15T08:51:39.405Z,40.40
2023-02-15T08:56:45.158Z,39.38
2023-02-15T09:01:52.730Z,38.00
2023-02-15T09:06:57.426Z,38.03
2023-02-15T09:12:01.524Z,35.41
2023-02-15T09:17:07.406Z,36.75
2023-02-15T09:22:11.458Z,36.13
2023-02-15T09:27:15.512Z,37.26
2023-02-15T09:32:21.175Z,36.87
2023-02-15T09:37:25.291Z,35.40
2023-02-15T09:43:01.087Z,33.48
2023-02-15T09:48:43.767Z,35.34
2023-02-15T09:54:09.484Z,34.63
2023-02-15T09:59:21.619Z,33.87
2023-02-15T10:04:57.000Z,32.44
2023-02-15T10:10:14.890Z,30.52
2023-02-15T10:15:39.986Z,29.85
2023-02-15T10:20:57.169Z,29.70
2023-02-15T10:26:12.389Z,31.57
2023-02-15T10:31:26.265Z,30.36
2023-02-15T10:36:46.567Z,30.53
2023-02-15T10:42:01.048Z,31.38
2023-02-15T10:47:29.135Z,31.03
2023-02-15T10:52:50.388Z,31.76
2023-02-15T10:58:04.654Z,34.15
2023-02-15T11:03:25.412Z,32.26
2023-02-15T11:08:34.531Z,34.16
2023-02-15T11:13:42.600Z,34.77
2023-02-15T11:18:53.556Z,32.94
2023-02-15T11:23:59.545Z,33.80
2023-02-15T11:29:12.757Z,33.97
2023-02-15T11:34:24.604Z,34.09
2023-02-15T11:39:33.183Z,35.23
2023-02-15T11:44:41.573Z,34.91
2023-02-15T11:49:47.769Z,34.79
2023-02-15T11:54:55.136Z,34.19
2023-02-15T12:00:05.174Z,34.55
2023-02-15T12:05:17.596Z,35.65
2023-02-15T12:10:27.595Z,35.61
2023-02-15T12:15:36.366Z,34.22
2023-02-15T12:20:42.146Z,33.47
2023-02-15T12:25:54.623Z,34.13
2023-02-15T12:30:59.832Z,34.97
2023-02-15T12:36:11.745Z,35.00
2023-02-15T12:41:27.855Z,36.70
2023-02-15T12:46:38.619Z,36.06
2023-02-15T12:51:48.161Z,36.87
2023-02-15T12:56:53.784Z,35.40
2023-02-15T13:01:58.194Z,37.05
2023-02-15T13:07:04.800Z,38.09
2023-02-15T13:12:22.265Z,38.15
2023-02-15T13:17:30.695Z,37.28
2023-02-15T13:22:43.324Z,36.93
2023-02-15T13:27:54.222Z,36.00
2023-02-15T13:33:01.848Z,38.23
2023-02-15T13:38:19.345Z,39.36
2023-02-15T13:43:41.285Z,39.82
2023-02-15T13:48:53.723Z,40.02
2023-02-15T13:54:33.185Z,41.27
2023-02-15T13:59:57.411Z,41.89
2023-02-15T14:05:19.560Z,41.76
2023-02-15T14:10:49.298Z,41.88
2023-02-15T14:15:59.023Z,42.51
2023-02-15T14:21:11.525Z,42.94
2023-02-15T14:26:24.104Z,44.42
2023-02-15T14:31:35.614Z,45.21
2023-02-15T14:36:45.283Z,46.19
2023-02-15T14:41:57.643Z,47.02
2023-02-15T14:47:10.349Z,48.57
2023-02-15T14:52:14.950Z,48.72
2023-02-15T14:57:27.671Z,48.58
2023-02-15T15:02:48.424Z,49.23
2023-02-15T15:07:55.821Z,49.37
2023-02-15T15:13:00.334Z,49.90
2023-02-15T15:18:07.871Z,50.86
2023-02-15T15:23:46.558Z,51.17
2023-02-15T15:29:03.671Z,51.68
2023-02-15T15:34:22.250Z,52.85
2023-02-15T15:40:13.380Z,53.62
2023-02-15T15:45:53.905Z,55.58
2023-02-15T15:51:02.052Z,57.12
2023-02-15T15:56:09.099Z,58.33
2023-02-15T16:01:14.886Z,58.98
2023-02-15T16:06:32.318Z,59.40
2023-02-15T16:11:36.609Z,59.84
2023-02-15T16:16:41.019Z,59.83
2023-02-15T16:21:46.492Z,60.33
2023-02-15T16:27:34.998Z,60.15
2023-02-15T16:32:38.996Z,60.14
2023-02-15T16:37:45.220Z,59.76
2023-02-15T16:42:49.488Z,59.78
2023-02-15T16:47:58.817Z,59.39
2023-02-15T16:53:09.390Z,59.63
2023-02-15T16:58:18.335Z,61.90
2023-02-15T17:03:25.488Z,63.47
2023-02-15T17:08:33.665Z,64.33
2023-02-15T17:13:37.858Z,65.08
2023-02-15T17:18:48.632Z,65.92
2023-02-15T17:24:01.620Z,66.76
2023-02-15T17:29:24.779Z,68.14
2023-02-15T17:34:50.781Z,67.56
2023-02-15T17:39:57.388Z,67.99
2023-02-15T17:45:01.370Z,68.77
2023-02-15T17:50:07.293Z,68.77
2023-02-15T17:55:35.190Z,68.49
2023-02-15T18:00:59.369Z,68.91
2023-02-15T18:06:26.529Z,69.32
2023-02-15T18:11:41.352Z,69.29
2023-02-15T18:16:47.462Z,69.94
2023-02-15T18:21:53.066Z,70.68
2023-02-15T18:26:59.433Z,71.50
2023-02-15T18:32:03.946Z,70.81
2023-02-15T18:37:16.012Z,71.19
2023-02-15T18:42:28.207Z,71.15
2023-02-15T18:47:33.452Z,71.14
2023-02-15T18:52:39.274Z,71.42
2023-02-15T18:57:46.052Z,72.28
2023-02-15T19:02:50.264Z,72.88
2023-02-15T19:07:55.269Z,74.28
2023-02-15T19:13:01.732Z,74.52
2023-02-15T19:18:06.720Z,73.37
2023-02-15T19:23:17.964Z,72.88
2023-02-15T19:28:32.886Z,72.74
2023-02-15T19:33:40.818Z,72.59
2023-02-15T19:38:49.525Z,73.68
2023-02-15T19:43:57.470Z,74.25
2023-02-15T19:49:02.515Z,75.24
2023-02-15T19:54:17.556Z,75.26
2023-02-15T19:59:25.976Z,75.07
2023-02-15T20:04:30.252Z,74.63
2023-02-15T20:09:37.940Z,74.32
2023-02-15T20:14:43.343Z,74.91
2023-02-15T20:19:47.255Z,76.42
2023-02-15T20:24:52.834Z,76.77
2023-02-15T20:29:58.260Z,77.46
2023-02-15T20:35:04.218Z,76.10
2023-02-15T20:40:16.124Z,73.97
2023-02-15T20:45:24.204Z,76.27
2023-02-15T20:50:30.529Z,76.08
2023-02-15T20:55:34.810Z,74.82
2023-02-15T21:00:40.663Z,74.77
2023-02-15T21:05:45.536Z,74.25
2023-02-15T21:10:51.875Z,73.74
2023-02-15T21:15:58.479Z,73.87
2023-02-15T21:21:04.724Z,74.06
2023-02-15T21:26:19.463Z,73.94
2023-02-15T21:31:27.235Z,75.92
2023-02-15T21:36:31.806Z,78.67
2023-02-15T21:41:53.348Z,77.39
2023-02-15T21:47:16.733Z,78.34
2023-02-15T21:52:24.768Z,77.12
2023-02-15T21:57:29.133Z,77.65
2023-02-15T22:02:34.557Z,77.20
2023-02-15T22:07:38.900Z,78.33
2023-02-15T22:12:44.520Z,77.42
2023-02-15T22:17:50.582Z,75.59
2023-02-15T22:22:56.230Z,74.74
2023-02-15T22:28:06.894Z,75.06
2023-02-15T22:33:24.265Z,75.62
2023-02-15T22:38:29.006Z,76.17
2023-02-15T22:43:38.513Z,75.62
2023-02-15T22:48:44.687Z,75.39
2023-02-15T22:53:49.685Z,77.12
2023-02-15T22:58:57.872Z,76.50
2023-02-15T23:04:04.335Z,76.43
2023-02-15T23:09:09.661Z,75.17
2023-02-15T23:14:27.478Z,77.16
2023-02-15T23:19:32.907Z,79.14
2023-02-15T23:24:37.136Z,80.32
2023-02-15T23:29:43.943Z,79.22
2023-02-15T23:34:51.235Z,80.46
2023-02-15T23:40:12.926Z,79.49
2023-02-15T23:45:23.411Z,78.19
2023-02-15T23:50:32.222Z,77.19
2023-02-15T23:55:38.031Z,78.29
